CheckWX is a tool to help pilots better visualize weather data.  It is not intended as a substitute for an official pre-flight weather briefing.

14:50:08 UTC

LTBP TAF
Yalova Airport
Çiftlikköy, Turkey
TAF LTBP 231340Z 2315/2324 04012KT 9999 SCT035 BKN100 BECMG 2317/2320 CAVOK

Mar-23@
15:00 UTC

Mar-23 @ 15:00 UTC

Mar-23@
17:00 UTC

Mar-23 @ 17:00 UTC

TAF LTBP 231340Z 2315/2324 04012KT 9999 SCT035 BKN100
Wind
  • 040° at 12 KTS
Cloud Levels
  • Scattered at 3,500' AGL
  • Broken at 10,000' AGL

Mar-23@
17:00 UTC

Mar-23 @ 17:00 UTC

Mar-24@
00:00 UTC

Mar-24 @ 00:00 UTC

BECMG 2317/2320 CAVOK

Becoming

Becoming Conditions expected by Sat, Mar 23, 2019 @ 20:00 UTC

Wind
  • 040° at 12 KTS
Conditions
No significant weather
Cloud Levels
  • No significant clouds